Time;durP1;ratioP1;P1;durP2;ratioP2;P2;SDS_P1;SDS_P2;PMS_P1;PMS_P2;Temp;Humidity;BMP_temperature;BMP_pressure;BME280_temperature;BME280_humidity;BME280_pressure;Samples;Min_cycle;Max_cycle;Signal;HPM_P1;HPM_P2
2021/10/17 00:02:01;;;;;;;65.27;18.10;;;;;;;;;;6272447;22;20304;-91
2021/10/17 00:05:07;;;;;;;57.20;17.50;;;;;;;;;;6273646;22;20193;-90
2021/10/17 00:08:12;;;;;;;85.47;19.80;;;;;;;;;;6273881;22;20216;-91
2021/10/17 00:11:18;;;;;;;100.27;20.10;;;;;;;;;;6274096;22;20154;-91
2021/10/17 00:14:23;;;;;;;126.17;19.77;;;;;;;;;;6274492;22;20170;-89
2021/10/17 00:17:29;;;;;;;112.17;17.50;;;;;;;;;;6274174;22;20181;-91
2021/10/17 00:20:34;;;;;;;190.30;21.13;;;;;;;;;;6271906;22;20165;-90
2021/10/17 00:23:39;;;;;;;180.10;21.27;;;;;;;;;;6273113;22;20165;-90
2021/10/17 00:26:49;;;;;;;117.67;20.80;;;;;;;;;;6273442;22;20174;-90
2021/10/17 00:29:55;;;;;;;145.70;21.07;;;;;;;;;;6274677;22;20284;-89
2021/10/17 00:33:01;;;;;;;74.50;19.53;;;;;;;;;;6273316;22;20173;-91
2021/10/17 00:36:06;;;;;;;206.57;21.37;;;;;;;;;;6273184;22;20162;-90
2021/10/17 00:39:11;;;;;;;173.03;20.53;;;;;;;;;;6272884;22;20193;-91
2021/10/17 00:42:18;;;;;;;114.27;20.47;;;;;;;;;;6271698;22;20165;-90
2021/10/17 00:45:27;;;;;;;182.30;21.53;;;;;;;;;;6273507;22;20177;-90
2021/10/17 00:48:32;;;;;;;124.77;18.83;;;;;;;;;;6271562;22;20178;-90
2021/10/17 00:51:37;;;;;;;240.20;21.07;;;;;;;;;;6291025;22;20157;-90
2021/10/17 00:54:43;;;;;;;113.93;19.73;;;;;;;;;;6271790;22;20169;-91
2021/10/17 00:57:49;;;;;;;150.70;21.20;;;;;;;;;;6272918;22;20201;-91
2021/10/17 01:00:56;;;;;;;126.33;18.60;;;;;;;;;;6273603;22;20312;-90
2021/10/17 01:04:02;;;;;;;116.17;20.53;;;;;;;;;;6272413;22;20213;-91
2021/10/17 01:07:09;;;;;;;92.67;18.03;;;;;;;;;;6281008;22;20177;-90
2021/10/17 01:10:14;;;;;;;140.27;18.40;;;;;;;;;;6290975;22;20256;-91
2021/10/17 01:13:22;;;;;;;71.07;17.33;;;;;;;;;;6290058;22;20252;-91
2021/10/17 01:16:27;;;;;;;74.00;17.37;;;;;;;;;;6292799;22;20229;-91
2021/10/17 01:19:32;;;;;;;72.60;17.23;;;;;;;;;;6289989;22;20301;-90
2021/10/17 01:22:59;;;;;;;48.23;16.43;;;;;;;;;;6289910;22;20163;-91
2021/10/17 01:26:04;;;;;;;48.53;17.37;;;;;;;;;;6289143;22;20177;-91
2021/10/17 01:29:10;;;;;;;61.93;16.10;;;;;;;;;;6289954;22;20169;-91
2021/10/17 01:32:15;;;;;;;75.47;16.57;;;;;;;;;;6290114;22;20168;-91
2021/10/17 01:35:20;;;;;;;116.30;17.43;;;;;;;;;;6287220;22;20170;-91
2021/10/17 01:38:27;;;;;;;69.13;16.20;;;;;;;;;;6290100;22;20169;-91
2021/10/17 01:41:32;;;;;;;77.20;15.40;;;;;;;;;;6289592;22;20173;-91
2021/10/17 01:44:38;;;;;;;150.70;17.53;;;;;;;;;;6289442;22;20166;-91
2021/10/17 01:47:47;;;;;;;98.70;16.07;;;;;;;;;;6289362;22;20170;-90
2021/10/17 01:50:54;;;;;;;139.40;19.00;;;;;;;;;;6288879;22;20293;-91
2021/10/17 01:54:04;;;;;;;115.47;17.60;;;;;;;;;;6288193;22;20154;-91
2021/10/17 01:57:09;;;;;;;85.43;16.53;;;;;;;;;;6291161;22;20172;-89
2021/10/17 02:00:16;;;;;;;82.40;16.47;;;;;;;;;;6289373;22;20209;-90
2021/10/17 02:03:25;;;;;;;178.00;16.93;;;;;;;;;;6291235;22;20247;-90
2021/10/17 02:06:37;;;;;;;113.77;16.30;;;;;;;;;;6288053;22;20304;-90
2021/10/17 02:09:47;;;;;;;84.73;15.13;;;;;;;;;;6291287;22;20591;-90
2021/10/17 02:12:53;;;;;;;174.20;18.50;;;;;;;;;;6291180;22;20177;-92
2021/10/17 02:15:58;;;;;;;127.20;16.77;;;;;;;;;;6289187;22;20165;-92
2021/10/17 02:19:22;;;;;;;72.23;16.73;;;;;;;;;;6290045;22;20173;-90
2021/10/17 02:22:27;;;;;;;43.40;15.23;;;;;;;;;;6288557;22;20170;-90
2021/10/17 02:25:34;;;;;;;241.90;27.40;;;;;;;;;;6288247;22;20177;-90
2021/10/17 02:28:39;;;;;;;55.87;15.33;;;;;;;;;;6289538;22;20174;-90
2021/10/17 02:31:46;;;;;;;41.83;14.13;;;;;;;;;;6286366;22;20296;-89
2021/10/17 02:34:51;;;;;;;34.87;14.80;;;;;;;;;;6286276;22;20166;-90
2021/10/17 02:37:56;;;;;;;37.37;14.80;;;;;;;;;;6285774;22;20169;-92
2021/10/17 02:41:02;;;;;;;30.77;13.43;;;;;;;;;;6285948;22;20157;-91
2021/10/17 02:44:08;;;;;;;41.60;14.17;;;;;;;;;;6289825;22;20613;-92
2021/10/17 02:47:14;;;;;;;65.63;14.97;;;;;;;;;;6285408;22;20169;-92
2021/10/17 02:50:19;;;;;;;86.20;15.73;;;;;;;;;;6286598;22;20501;-92
2021/10/17 02:53:27;;;;;;;46.60;15.37;;;;;;;;;;6284779;22;20180;-92
2021/10/17 02:56:34;;;;;;;58.07;14.90;;;;;;;;;;6285917;22;20225;-92
2021/10/17 02:59:39;;;;;;;57.57;15.23;;;;;;;;;;6285276;22;20232;-92
2021/10/17 03:02:46;;;;;;;37.20;15.20;;;;;;;;;;6286806;22;20228;-92
2021/10/17 03:05:51;;;;;;;140.57;18.07;;;;;;;;;;6285988;22;20269;-90
2021/10/17 03:08:56;;;;;;;38.70;15.33;;;;;;;;;;6268024;22;20210;-92
2021/10/17 03:12:05;;;;;;;36.60;15.03;;;;;;;;;;6269903;22;20258;-91
2021/10/17 03:15:11;;;;;;;33.87;14.17;;;;;;;;;;6269956;22;20236;-90
2021/10/17 03:18:16;;;;;;;45.53;14.73;;;;;;;;;;6268707;22;20165;-90
2021/10/17 03:21:21;;;;;;;66.20;15.33;;;;;;;;;;6269676;22;20234;-91
2021/10/17 03:24:26;;;;;;;46.67;14.03;;;;;;;;;;6268103;22;20166;-90
2021/10/17 03:27:33;;;;;;;39.63;14.60;;;;;;;;;;6269664;22;20164;-91
2021/10/17 03:30:38;;;;;;;49.63;14.27;;;;;;;;;;6269181;22;20508;-91
2021/10/17 03:33:47;;;;;;;59.83;15.07;;;;;;;;;;6268226;22;20215;-91
2021/10/17 03:36:55;;;;;;;46.90;14.20;;;;;;;;;;6270347;22;20173;-91
2021/10/17 03:40:01;;;;;;;54.83;14.53;;;;;;;;;;6271049;22;20566;-91
2021/10/17 03:43:11;;;;;;;63.33;14.40;;;;;;;;;;6271289;22;20158;-91
2021/10/17 03:46:25;;;;;;;54.63;14.87;;;;;;;;;;6271724;22;20171;-90
2021/10/17 03:49:32;;;;;;;44.50;13.73;;;;;;;;;;6270474;22;20166;-92
2021/10/17 03:52:38;;;;;;;60.70;13.40;;;;;;;;;;6270667;22;20178;-92
2021/10/17 03:55:45;;;;;;;48.63;14.17;;;;;;;;;;6270530;22;20193;-91
2021/10/17 03:58:53;;;;;;;70.80;15.03;;;;;;;;;;6289219;22;20184;-91
2021/10/17 04:02:20;;;;;;;50.83;15.10;;;;;;;;;;6269686;22;20277;-90
2021/10/17 04:05:26;;;;;;;71.83;14.47;;;;;;;;;;6269910;22;20166;-91
2021/10/17 04:08:31;;;;;;;75.07;14.60;;;;;;;;;;6271324;22;20190;-90
2021/10/17 04:11:36;;;;;;;78.93;14.33;;;;;;;;;;6269193;22;20165;-90
2021/10/17 04:14:43;;;;;;;50.97;13.73;;;;;;;;;;6270269;22;20173;-91
2021/10/17 04:17:48;;;;;;;36.67;13.17;;;;;;;;;;6288959;22;20165;-91
2021/10/17 04:20:53;;;;;;;221.53;17.30;;;;;;;;;;6269230;22;20463;-91
2021/10/17 04:24:01;;;;;;;121.73;14.70;;;;;;;;;;6270539;22;20150;-91
2021/10/17 04:27:09;;;;;;;219.37;16.30;;;;;;;;;;6269493;22;20263;-90
2021/10/17 04:30:17;;;;;;;145.53;15.47;;;;;;;;;;6274698;22;20522;-90
2021/10/17 04:33:23;;;;;;;69.50;15.20;;;;;;;;;;6273863;22;20165;-90
2021/10/17 04:36:28;;;;;;;62.77;14.57;;;;;;;;;;6274388;22;20173;-91
2021/10/17 04:39:33;;;;;;;86.30;16.17;;;;;;;;;;6275656;22;20189;-91
2021/10/17 04:42:39;;;;;;;53.47;14.33;;;;;;;;;;6274810;22;20174;-90
2021/10/17 04:45:46;;;;;;;91.70;16.50;;;;;;;;;;6292948;22;20146;-90
2021/10/17 04:48:51;;;;;;;139.77;16.27;;;;;;;;;;6274930;22;20189;-91
2021/10/17 04:51:56;;;;;;;114.70;16.83;;;;;;;;;;6273582;22;20169;-91
2021/10/17 04:55:05;;;;;;;68.70;16.33;;;;;;;;;;6273435;22;20235;-91
2021/10/17 04:58:11;;;;;;;77.93;16.43;;;;;;;;;;6272118;22;20297;-90
2021/10/17 05:01:18;;;;;;;73.60;13.87;;;;;;;;;;6273138;22;20173;-90
2021/10/17 05:04:23;;;;;;;85.40;13.97;;;;;;;;;;6274174;22;20168;-91
2021/10/17 05:07:29;;;;;;;115.33;14.83;;;;;;;;;;6287422;22;20254;-91
2021/10/17 05:10:35;;;;;;;66.03;15.03;;;;;;;;;;6291134;22;20174;-91
2021/10/17 05:13:41;;;;;;;115.03;16.00;;;;;;;;;;6290011;22;20250;-91
2021/10/17 05:16:49;;;;;;;211.37;17.57;;;;;;;;;;6290279;22;20166;-90
2021/10/17 05:19:54;;;;;;;64.70;15.10;;;;;;;;;;6290063;22;20193;-90
2021/10/17 05:22:59;;;;;;;50.80;13.37;;;;;;;;;;6290488;22;20492;-92
2021/10/17 05:26:06;;;;;;;213.67;16.93;;;;;;;;;;6290513;22;20234;-91
2021/10/17 05:29:12;;;;;;;78.60;14.43;;;;;;;;;;6290682;22;20216;-91
2021/10/17 05:32:20;;;;;;;42.67;14.07;;;;;;;;;;6290620;22;20185;-90
2021/10/17 05:35:26;;;;;;;63.47;13.37;;;;;;;;;;6290501;22;20194;-90
2021/10/17 05:38:31;;;;;;;39.20;13.00;;;;;;;;;;6289757;22;20173;-91
2021/10/17 05:41:36;;;;;;;38.30;12.13;;;;;;;;;;6290353;22;20193;-91
2021/10/17 05:44:41;;;;;;;35.47;13.00;;;;;;;;;;6286680;22;20617;-90
2021/10/17 05:47:50;;;;;;;36.83;12.33;;;;;;;;;;6286424;22;20162;-91
2021/10/17 05:50:56;;;;;;;34.87;12.73;;;;;;;;;;6288162;22;20212;-90
2021/10/17 05:54:01;;;;;;;65.93;14.47;;;;;;;;;;6287455;22;20353;-91
2021/10/17 05:57:06;;;;;;;39.73;12.90;;;;;;;;;;6287720;22;20173;-90
2021/10/17 06:00:12;;;;;;;35.53;12.13;;;;;;;;;;6285708;22;20209;-91
2021/10/17 06:03:21;;;;;;;81.03;13.40;;;;;;;;;;6286115;22;20174;-90
2021/10/17 06:06:45;;;;;;;58.10;12.57;;;;;;;;;;6286810;22;20193;-91
2021/10/17 06:09:53;;;;;;;58.13;12.97;;;;;;;;;;6268636;22;20166;-91
2021/10/17 06:13:02;;;;;;;62.77;13.13;;;;;;;;;;6269551;22;20174;-91
2021/10/17 06:16:07;;;;;;;47.17;12.50;;;;;;;;;;6267959;22;20553;-91
2021/10/17 06:19:14;;;;;;;37.30;12.20;;;;;;;;;;6269284;22;20169;-91
2021/10/17 06:22:28;;;;;;;43.13;12.33;;;;;;;;;;6269544;22;20170;-91
2021/10/17 06:25:33;;;;;;;57.40;13.40;;;;;;;;;;6270115;22;20177;-92
2021/10/17 06:28:39;;;;;;;47.60;12.30;;;;;;;;;;6269416;22;20177;-91
2021/10/17 06:31:44;;;;;;;33.73;12.13;;;;;;;;;;6269091;22;20162;-92
2021/10/17 06:34:50;;;;;;;68.30;12.67;;;;;;;;;;6268151;22;20691;-91
2021/10/17 06:37:55;;;;;;;50.50;12.10;;;;;;;;;;6268925;22;20162;-92
2021/10/17 06:41:01;;;;;;;35.37;11.77;;;;;;;;;;6269852;22;20192;-92
2021/10/17 06:44:06;;;;;;;44.23;11.63;;;;;;;;;;6269072;22;20169;-91
2021/10/17 06:47:13;;;;;;;50.23;12.03;;;;;;;;;;6268491;22;20166;-91
2021/10/17 06:50:24;;;;;;;76.73;12.87;;;;;;;;;;6268939;22;20226;-92
2021/10/17 06:53:29;;;;;;;42.57;11.80;;;;;;;;;;6270302;22;20226;-91
2021/10/17 06:56:35;;;;;;;38.30;12.13;;;;;;;;;;6271735;22;20274;-91
2021/10/17 06:59:41;;;;;;;41.77;12.10;;;;;;;;;;6270615;22;20169;-91
2021/10/17 07:02:46;;;;;;;48.97;12.43;;;;;;;;;;6270845;22;20181;-90
2021/10/17 07:05:54;;;;;;;31.30;11.97;;;;;;;;;;6271557;22;20172;-91
2021/10/17 07:09:01;;;;;;;29.33;12.60;;;;;;;;;;6269497;22;20205;-91
2021/10/17 07:12:16;;;;;;;33.93;11.57;;;;;;;;;;6271948;22;20172;-91
2021/10/17 07:15:25;;;;;;;46.13;12.97;;;;;;;;;;6272190;22;20166;-92
2021/10/17 07:18:34;;;;;;;59.70;13.43;;;;;;;;;;6269457;22;20609;-91
2021/10/17 07:21:41;;;;;;;45.60;12.77;;;;;;;;;;6269466;22;20194;-91
2021/10/17 07:24:46;;;;;;;27.87;12.73;;;;;;;;;;6270590;22;20170;-91
2021/10/17 07:27:53;;;;;;;38.43;12.63;;;;;;;;;;6271713;22;20165;-91
2021/10/17 07:30:59;;;;;;;38.87;11.10;;;;;;;;;;6269761;22;20633;-92
2021/10/17 07:34:06;;;;;;;39.20;12.10;;;;;;;;;;6269299;22;20212;-92
2021/10/17 07:37:14;;;;;;;31.27;12.77;;;;;;;;;;6287597;22;20165;-92
2021/10/17 07:40:20;;;;;;;32.67;13.37;;;;;;;;;;6269361;22;20177;-91
2021/10/17 07:43:27;;;;;;;33.30;12.07;;;;;;;;;;6269195;22;20201;-90
2021/10/17 07:46:33;;;;;;;27.40;13.40;;;;;;;;;;6269880;22;20166;-91
2021/10/17 07:49:40;;;;;;;30.97;12.03;;;;;;;;;;6273724;22;20185;-91
2021/10/17 07:52:56;;;;;;;24.27;11.83;;;;;;;;;;6270898;22;20185;-89
2021/10/17 07:56:10;;;;;;;39.83;16.93;;;;;;;;;;6269702;22;20169;-91
2021/10/17 07:59:16;;;;;;;24.50;11.73;;;;;;;;;;6286768;22;20158;-90
2021/10/17 08:02:24;;;;;;;35.13;11.93;;;;;;;;;;6268689;22;20289;-90
2021/10/17 08:05:29;;;;;;;28.03;14.20;;;;;;;;;;6269212;22;20213;-91
2021/10/17 08:08:37;;;;;;;22.80;12.40;;;;;;;;;;6269882;22;20165;-90
2021/10/17 08:11:46;;;;;;;24.17;12.13;;;;;;;;;;6268617;22;20245;-90
2021/10/17 08:14:53;;;;;;;21.77;11.63;;;;;;;;;;6271625;22;20165;-91
2021/10/17 08:17:57;;;;;;;25.67;11.80;;;;;;;;;;6288671;22;20173;-91
2021/10/17 08:21:14;;;;;;;23.27;11.87;;;;;;;;;;6269220;22;20215;-91
2021/10/17 08:24:29;;;;;;;24.63;11.83;;;;;;;;;;6271978;22;20185;-90
2021/10/17 08:27:34;;;;;;;24.77;11.90;;;;;;;;;;6274239;22;20489;-91
2021/10/17 08:30:40;;;;;;;22.77;11.07;;;;;;;;;;6271920;22;20166;-91
2021/10/17 08:33:47;;;;;;;21.77;10.80;;;;;;;;;;6273325;22;20268;-92
2021/10/17 08:36:53;;;;;;;21.27;11.13;;;;;;;;;;6272613;22;20180;-90
2021/10/17 08:40:20;;;;;;;20.30;10.57;;;;;;;;;;6291796;22;20173;-88
2021/10/17 08:43:52;;;;;;;21.23;11.10;;;;;;;;;;6291359;22;20166;-90
2021/10/17 08:47:01;;;;;;;23.07;10.73;;;;;;;;;;6274736;22;20238;-91
2021/10/17 22:01:01;;;;;;;41.37;16.17;;;;;;;;;;6234117;22;20206;-93
2021/10/17 22:04:08;;;;;;;39.70;16.70;;;;;;;;;;6280449;22;20157;-90
2021/10/17 22:07:15;;;;;;;59.40;15.87;;;;;;;;;;6276440;22;20162;-92
2021/10/17 22:10:22;;;;;;;38.60;17.67;;;;;;;;;;6273690;22;20173;-91
2021/10/17 22:13:28;;;;;;;47.60;16.53;;;;;;;;;;6275408;22;20230;-91
2021/10/17 22:16:35;;;;;;;47.83;16.23;;;;;;;;;;6278626;22;20494;-92
2021/10/17 22:19:42;;;;;;;96.30;16.53;;;;;;;;;;6279896;22;20166;-91
2021/10/17 22:22:48;;;;;;;50.43;15.70;;;;;;;;;;6297626;22;20193;-92
2021/10/17 22:25:56;;;;;;;90.97;16.83;;;;;;;;;;6274324;22;20150;-90
2021/10/17 22:29:02;;;;;;;64.30;17.00;;;;;;;;;;6278579;22;20150;-92
2021/10/17 22:32:09;;;;;;;42.17;15.77;;;;;;;;;;6275362;22;20248;-91
2021/10/17 22:35:14;;;;;;;56.23;15.93;;;;;;;;;;6275693;22;20585;-92
2021/10/17 22:38:20;;;;;;;37.70;15.67;;;;;;;;;;6277240;22;20165;-92
2021/10/17 22:41:25;;;;;;;112.00;15.67;;;;;;;;;;6278862;22;20182;-91
2021/10/17 22:44:31;;;;;;;82.90;16.60;;;;;;;;;;6273617;22;20194;-91
2021/10/17 22:47:38;;;;;;;44.10;15.57;;;;;;;;;;6277450;22;20161;-93
2021/10/17 22:50:43;;;;;;;57.50;15.87;;;;;;;;;;6275232;22;20161;-92
2021/10/17 23:32:05;;;;;;;37.57;14.07;;;;;;;;;;6271005;22;20206;-90
2021/10/17 23:35:10;;;;;;;65.83;14.43;;;;;;;;;;6289955;22;20249;-92
2021/10/17 23:38:16;;;;;;;68.13;14.27;;;;;;;;;;6272811;22;20177;-91
2021/10/17 23:41:21;;;;;;;38.53;14.30;;;;;;;;;;6272369;22;20170;-91
2021/10/17 23:44:27;;;;;;;76.20;14.30;;;;;;;;;;6272867;22;20532;-91
2021/10/17 23:47:33;;;;;;;55.43;13.17;;;;;;;;;;6271899;22;20625;-91
2021/10/17 23:50:40;;;;;;;35.93;12.97;;;;;;;;;;6271413;22;20204;-91
2021/10/17 23:53:45;;;;;;;29.13;11.40;;;;;;;;;;6272602;22;20169;-91
2021/10/17 23:56:50;;;;;;;29.20;12.23;;;;;;;;;;6272021;22;20166;-91
2021/10/17 23:59:55;;;;;;;24.67;13.20;;;;;;;;;;6275551;22;20165;-92
